createdAt,value
2023-02-22T00:02:20.604Z,6.20
2023-02-22T00:04:50.014Z,6.10
2023-02-22T00:07:17.353Z,6.57
2023-02-22T00:09:49.485Z,4.65
2023-02-22T00:12:20.605Z,5.32
2023-02-22T00:14:47.596Z,5.10
2023-02-22T00:17:16.937Z,5.38
2023-02-22T00:19:43.776Z,6.57
2023-02-22T00:22:10.668Z,4.88
2023-02-22T00:24:42.116Z,7.00
2023-02-22T00:27:08.991Z,6.32
2023-02-22T00:29:38.753Z,6.05
2023-02-22T00:32:05.758Z,4.72
2023-02-22T00:34:35.122Z,4.97
2023-02-22T00:37:04.218Z,5.72
2023-02-22T00:39:31.251Z,6.40
2023-02-22T00:41:58.304Z,5.20
2023-02-22T00:44:27.538Z,5.82
2023-02-22T00:46:56.983Z,8.15
2023-02-22T00:49:26.175Z,6.28
2023-02-22T00:51:53.076Z,6.20
2023-02-22T00:54:25.669Z,6.03
2023-02-22T00:56:52.980Z,5.47
2023-02-22T00:59:20.125Z,6.22
2023-02-22T01:01:52.082Z,5.88
2023-02-22T01:04:24.677Z,5.88
2023-02-22T01:06:54.078Z,6.75
2023-02-22T01:09:23.276Z,8.00
2023-02-22T01:11:55.389Z,7.07
2023-02-22T01:14:26.623Z,5.72
2023-02-22T01:16:57.236Z,5.10
2023-02-22T01:19:26.678Z,5.65
2023-02-22T01:21:56.628Z,5.60
2023-02-22T01:24:25.693Z,5.65
2023-02-22T01:26:53.436Z,4.72
2023-02-22T01:29:21.381Z,5.10
2023-02-22T01:31:55.553Z,5.43
2023-02-22T01:34:30.168Z,6.60
2023-02-22T01:36:57.042Z,5.65
2023-02-22T01:39:23.916Z,6.10
2023-02-22T01:41:53.876Z,4.28
2023-02-22T01:44:32.168Z,5.75
2023-02-22T01:47:05.643Z,5.55
2023-02-22T01:49:46.566Z,4.90
2023-02-22T01:52:19.715Z,5.30
2023-02-22T01:55:01.384Z,5.35
2023-02-22T01:57:36.103Z,5.05
2023-02-22T02:00:20.226Z,7.05
2023-02-22T02:03:00.314Z,6.30
2023-02-22T02:05:31.404Z,6.75
2023-02-22T02:08:06.530Z,8.32
2023-02-22T02:10:34.968Z,4.55
2023-02-22T02:13:04.019Z,5.72
2023-02-22T02:15:33.836Z,6.53
2023-02-22T02:18:07.644Z,6.15
2023-02-22T02:20:46.857Z,4.85
2023-02-22T02:23:44.054Z,6.78
2023-02-22T02:26:41.586Z,5.22
2023-02-22T02:29:38.149Z,5.53
2023-02-22T02:32:16.463Z,4.22
2023-02-22T02:35:02.553Z,5.15
2023-02-22T02:37:50.532Z,4.30
2023-02-22T02:40:47.306Z,5.03
2023-02-22T02:43:14.146Z,6.70
2023-02-22T02:45:55.465Z,5.20
2023-02-22T02:48:28.177Z,6.25
2023-02-22T02:50:58.970Z,4.57
2023-02-22T02:53:37.153Z,5.10
2023-02-22T02:56:04.510Z,5.10
2023-02-22T02:58:34.080Z,5.68
2023-02-22T03:01:05.543Z,5.50
2023-02-22T03:04:04.245Z,4.93
2023-02-22T03:06:57.348Z,3.95
2023-02-22T03:09:38.883Z,5.90
2023-02-22T03:12:32.476Z,5.20
2023-02-22T03:15:17.233Z,3.97
2023-02-22T03:17:59.970Z,4.63
2023-02-22T03:20:50.540Z,5.00
2023-02-22T03:23:53.843Z,6.15
2023-02-22T03:26:42.150Z,5.43
2023-02-22T03:29:16.161Z,6.97
2023-02-22T03:31:53.778Z,6.97
2023-02-22T03:34:37.034Z,6.15
2023-02-22T03:37:13.844Z,4.40
2023-02-22T03:39:43.890Z,5.22
2023-02-22T03:42:18.513Z,5.82
2023-02-22T03:44:51.701Z,6.75
2023-02-22T03:47:45.850Z,5.25
2023-02-22T03:50:22.154Z,7.47
2023-02-22T03:52:49.301Z,3.85
2023-02-22T03:55:19.266Z,4.50
2023-02-22T03:57:50.468Z,4.63
2023-02-22T04:00:24.276Z,5.07
2023-02-22T04:02:51.466Z,4.88
2023-02-22T04:05:18.828Z,5.90
2023-02-22T04:07:46.030Z,6.38
2023-02-22T04:10:14.065Z,7.78
2023-02-22T04:12:40.942Z,6.15
2023-02-22T04:15:09.447Z,6.60
2023-02-22T04:17:36.339Z,4.47
2023-02-22T04:20:04.982Z,5.13
2023-02-22T04:22:31.872Z,4.88
2023-02-22T04:25:01.202Z,6.03
2023-02-22T04:27:30.549Z,4.38
2023-02-22T04:29:57.401Z,5.05
2023-02-22T04:32:24.336Z,4.90
2023-02-22T04:34:51.197Z,4.93
2023-02-22T04:37:20.606Z,5.55
2023-02-22T04:39:49.981Z,3.80
2023-02-22T04:42:16.902Z,4.28
2023-02-22T04:44:46.368Z,4.82
2023-02-22T04:47:17.845Z,5.28
2023-02-22T04:49:45.604Z,4.13
2023-02-22T04:52:15.973Z,4.93
2023-02-22T04:54:43.002Z,6.78
2023-02-22T04:57:12.285Z,8.45
2023-02-22T04:59:39.177Z,5.88
2023-02-22T05:02:08.466Z,6.00
2023-02-22T05:04:38.252Z,7.05
2023-02-22T05:07:05.647Z,8.73
2023-02-22T05:09:38.075Z,4.60
2023-02-22T05:12:05.911Z,5.53
2023-02-22T05:14:33.259Z,6.10
2023-02-22T05:17:01.879Z,5.47
2023-02-22T05:19:31.563Z,6.57
2023-02-22T05:21:58.412Z,5.28
2023-02-22T05:24:25.411Z,6.15
2023-02-22T05:26:53.237Z,4.63
2023-02-22T05:29:20.975Z,4.75
2023-02-22T05:31:48.141Z,4.95
2023-02-22T05:34:15.860Z,4.80
2023-02-22T05:36:43.014Z,6.40
2023-02-22T05:39:09.885Z,8.02
2023-02-22T05:41:36.814Z,6.93
2023-02-22T05:44:06.317Z,4.68
2023-02-22T05:46:33.307Z,5.05
2023-02-22T05:49:00.189Z,4.85
2023-02-22T05:51:29.291Z,7.65
2023-02-22T05:53:58.619Z,6.25
2023-02-22T05:56:30.613Z,5.47
2023-02-22T05:58:58.541Z,4.82
2023-02-22T06:01:27.810Z,7.38
2023-02-22T06:03:54.787Z,4.60
2023-02-22T06:06:22.565Z,6.28
2023-02-22T06:08:49.664Z,7.28
2023-02-22T06:11:19.850Z,7.25
2023-02-22T06:13:54.131Z,7.40
2023-02-22T06:16:22.594Z,7.20
2023-02-22T06:18:50.251Z,6.38
2023-02-22T06:21:17.711Z,5.70
2023-02-22T06:23:47.414Z,5.70
2023-02-22T06:26:19.806Z,6.07
2023-02-22T06:28:47.332Z,7.40
2023-02-22T06:31:16.871Z,9.43
2023-02-22T06:33:46.045Z,7.93
2023-02-22T06:36:13.002Z,7.78
2023-02-22T06:38:47.085Z,8.60
2023-02-22T06:41:16.593Z,6.50
2023-02-22T06:43:43.629Z,5.90
2023-02-22T06:46:14.762Z,5.65
2023-02-22T06:48:41.552Z,5.72
2023-02-22T06:51:10.070Z,6.32
2023-02-22T06:53:39.013Z,6.90
2023-02-22T06:56:11.040Z,7.53
2023-02-22T06:58:37.882Z,9.55
2023-02-22T07:01:07.389Z,8.15
2023-02-22T07:03:37.418Z,7.70
2023-02-22T07:06:10.747Z,7.90
2023-02-22T07:08:42.437Z,7.85
2023-02-22T07:13:38.185Z,7.50
2023-02-22T07:16:07.890Z,6.10
2023-02-22T07:18:36.996Z,7.03
2023-02-22T07:21:04.215Z,5.50
2023-02-22T07:23:35.685Z,5.63
2023-02-22T07:26:06.659Z,5.57
2023-02-22T07:28:38.473Z,6.32
2023-02-22T07:31:07.896Z,4.90
2023-02-22T07:33:35.485Z,7.88
2023-02-22T07:36:05.450Z,5.82
2023-02-22T07:38:32.657Z,5.32
2023-02-22T07:41:02.132Z,5.07
2023-02-22T07:43:31.635Z,5.28
2023-02-22T07:46:02.957Z,7.22
2023-02-22T07:48:33.806Z,6.25
2023-02-22T07:51:00.739Z,5.90
2023-02-22T07:53:33.633Z,6.18
2023-02-22T07:56:05.189Z,6.38
2023-02-22T08:01:02.531Z,5.78
2023-02-22T08:03:34.397Z,8.77
2023-02-22T08:06:05.706Z,6.82
2023-02-22T08:08:32.750Z,4.28
2023-02-22T08:11:04.284Z,4.20
2023-02-22T08:13:33.365Z,3.58
2023-02-22T08:16:03.570Z,4.68
2023-02-22T08:18:30.674Z,5.40
2023-02-22T08:20:57.639Z,6.43
2023-02-22T08:23:27.063Z,6.43
2023-02-22T08:25:57.746Z,5.07
2023-02-22T08:28:25.296Z,7.05
2023-02-22T08:30:56.644Z,8.10
2023-02-22T08:33:23.699Z,7.32
2023-02-22T08:35:55.456Z,11.63
2023-02-22T08:40:57.507Z,6.75
2023-02-22T08:43:28.571Z,4.75
2023-02-22T08:45:58.243Z,3.63
2023-02-22T08:48:27.932Z,3.75
2023-02-22T08:50:55.013Z,5.25
2023-02-22T08:53:21.999Z,4.93
2023-02-22T08:55:53.865Z,6.65
2023-02-22T08:58:20.776Z,3.78
2023-02-22T09:00:49.722Z,4.50
2023-02-22T09:03:16.670Z,3.83
2023-02-22T09:05:47.216Z,3.30
2023-02-22T09:08:19.045Z,2.92
2023-02-22T09:10:46.152Z,3.38
2023-02-22T09:13:13.502Z,3.08
2023-02-22T09:15:40.419Z,2.42
2023-02-22T09:18:14.370Z,3.45
2023-02-22T09:20:42.014Z,3.45
2023-02-22T09:23:09.835Z,5.10
2023-02-22T09:25:38.809Z,5.25
2023-02-22T09:28:05.933Z,6.15
2023-02-22T09:30:37.128Z,4.68
2023-02-22T09:33:15.166Z,5.15
2023-02-22T09:35:47.753Z,3.75
2023-02-22T09:38:18.991Z,5.50
2023-02-22T09:41:12.533Z,3.30
2023-02-22T09:44:08.500Z,3.78
2023-02-22T09:46:42.075Z,4.25
2023-02-22T09:49:28.033Z,6.05
2023-02-22T09:52:13.944Z,5.93
2023-02-22T09:54:52.146Z,7.65
2023-02-22T09:57:32.728Z,5.80
2023-02-22T10:00:01.604Z,7.38
2023-02-22T10:02:38.675Z,6.18
2023-02-22T10:05:17.937Z,6.75
2023-02-22T10:07:52.882Z,9.60
2023-02-22T10:10:23.086Z,8.02
2023-02-22T10:13:14.056Z,10.10
2023-02-22T10:16:06.965Z,7.87
2023-02-22T10:18:44.063Z,9.77
2023-02-22T10:21:25.795Z,9.30
2023-02-22T10:26:33.201Z,12.23
2023-02-22T10:29:18.556Z,9.98
2023-02-22T10:32:02.300Z,12.13
2023-02-22T10:34:40.807Z,11.88
2023-02-22T10:37:40.322Z,9.40
2023-02-22T10:40:23.014Z,9.77
2023-02-22T10:42:52.563Z,10.30
2023-02-22T10:45:27.076Z,11.65
2023-02-22T10:48:00.120Z,13.55
2023-02-22T10:50:32.162Z,10.40
2023-02-22T10:52:59.090Z,13.95
2023-02-22T10:55:26.002Z,12.98
2023-02-22T10:58:06.132Z,9.63
2023-02-22T11:00:39.244Z,8.80
2023-02-22T11:03:23.947Z,9.63
2023-02-22T11:05:52.475Z,9.90
2023-02-22T11:08:24.130Z,8.88
2023-02-22T11:11:02.392Z,11.35
2023-02-22T11:13:41.022Z,10.43
2023-02-22T11:16:42.176Z,9.27
2023-02-22T11:19:15.982Z,7.80
2023-02-22T11:21:46.208Z,9.65
2023-02-22T11:26:54.030Z,10.48
2023-02-22T11:29:36.762Z,10.68
2023-02-22T11:32:20.977Z,9.48
2023-02-22T11:35:03.497Z,8.77
2023-02-22T11:37:41.833Z,10.63
2023-02-22T11:40:17.739Z,8.80
2023-02-22T11:42:44.594Z,11.38
2023-02-22T11:45:21.506Z,10.32
2023-02-22T11:47:56.053Z,8.57
2023-02-22T11:51:00.665Z,7.95
2023-02-22T11:53:58.181Z,9.10
2023-02-22T11:56:48.337Z,9.20
2023-02-22T11:59:55.841Z,7.85
2023-02-22T12:03:17.118Z,8.88
2023-02-22T12:06:31.923Z,8.33
2023-02-22T12:09:23.390Z,9.45
2023-02-22T12:12:11.956Z,8.57
2023-02-22T12:15:03.143Z,10.52
2023-02-22T12:17:59.422Z,7.82
2023-02-22T12:20:56.715Z,7.95
2023-02-22T12:23:44.942Z,7.75
2023-02-22T12:26:20.119Z,7.28
2023-02-22T12:29:33.657Z,7.70
2023-02-22T12:32:06.159Z,7.82
2023-02-22T12:34:57.738Z,7.38
2023-02-22T12:37:40.779Z,7.40
2023-02-22T12:40:13.575Z,8.15
2023-02-22T12:43:20.712Z,9.25
2023-02-22T12:46:02.801Z,7.50
2023-02-22T12:48:52.246Z,7.30
2023-02-22T12:51:45.946Z,10.63
2023-02-22T12:54:46.374Z,7.40
2023-02-22T12:57:34.926Z,8.93
2023-02-22T13:00:11.777Z,9.30
2023-02-22T13:02:49.636Z,13.65
2023-02-22T13:05:22.156Z,7.90
2023-02-22T13:07:52.096Z,10.45
2023-02-22T13:10:53.065Z,11.60
2023-02-22T13:13:35.387Z,9.20
2023-02-22T13:16:17.883Z,11.13
2023-02-22T13:19:06.469Z,8.27
2023-02-22T13:21:48.504Z,9.13
2023-02-22T13:24:53.804Z,10.85
2023-02-22T13:27:27.176Z,9.93
2023-02-22T13:30:01.734Z,10.70
2023-02-22T13:32:40.513Z,9.98
2023-02-22T13:36:21.927Z,8.57
2023-02-22T13:39:16.302Z,10.77
2023-02-22T13:41:45.239Z,8.90
2023-02-22T13:44:44.128Z,9.25
2023-02-22T13:47:55.869Z,7.28
2023-02-22T13:50:50.065Z,6.93
2023-02-22T13:53:24.653Z,8.23
2023-02-22T13:56:00.063Z,8.00
2023-02-22T13:58:27.803Z,8.90
2023-02-22T14:00:58.345Z,10.55
2023-02-22T14:03:36.656Z,8.38
2023-02-22T14:06:39.083Z,8.95
2023-02-22T14:09:19.072Z,6.68
2023-02-22T14:11:54.243Z,6.95
2023-02-22T14:14:24.816Z,7.18
2023-02-22T14:17:37.206Z,10.05
2023-02-22T14:20:15.752Z,5.68
2023-02-22T14:22:48.273Z,7.38
2023-02-22T14:25:43.698Z,7.88
2023-02-22T14:28:36.689Z,8.40
2023-02-22T14:31:34.521Z,5.75
2023-02-22T14:34:08.433Z,6.07
2023-02-22T14:37:05.807Z,7.28
2023-02-22T14:39:55.787Z,5.65
2023-02-22T14:42:40.480Z,7.95
2023-02-22T14:45:45.880Z,7.47
2023-02-22T14:48:28.083Z,6.70
2023-02-22T14:51:08.840Z,6.55
2023-02-22T14:54:13.715Z,9.85
2023-02-22T14:56:56.300Z,6.45
2023-02-22T14:59:26.987Z,6.78
2023-02-22T15:02:13.477Z,5.77
2023-02-22T15:04:54.170Z,7.78
2023-02-22T15:07:30.169Z,8.77
2023-02-22T15:10:27.978Z,5.18
2023-02-22T15:13:12.363Z,5.50
2023-02-22T15:15:56.695Z,4.75
2023-02-22T15:18:44.888Z,6.10
2023-02-22T15:21:18.066Z,5.60
2023-02-22T15:23:54.999Z,9.75
2023-02-22T15:26:31.527Z,4.63
2023-02-22T15:28:59.780Z,7.25
2023-02-22T15:31:35.907Z,8.35
2023-02-22T15:34:15.375Z,7.40
2023-02-22T15:36:46.239Z,6.10
2023-02-22T15:39:34.389Z,6.63
2023-02-22T15:42:20.922Z,6.20
2023-02-22T15:44:53.824Z,7.03
2023-02-22T15:47:40.054Z,6.72
2023-02-22T15:50:25.820Z,6.05
2023-02-22T15:53:01.705Z,6.78
2023-02-22T15:55:38.041Z,8.85
2023-02-22T15:58:23.812Z,7.40
2023-02-22T16:01:18.806Z,12.23
2023-02-22T16:03:57.282Z,8.80
2023-02-22T16:06:30.224Z,7.05
2023-02-22T16:09:09.886Z,7.93
2023-02-22T16:11:43.357Z,9.40
2023-02-22T16:14:50.037Z,7.75
2023-02-22T16:17:46.876Z,5.30
2023-02-22T16:20:24.853Z,5.53
2023-02-22T16:22:57.587Z,6.88
2023-02-22T16:25:35.713Z,6.25
2023-02-22T16:28:26.158Z,7.68
2023-02-22T16:31:00.142Z,7.30
2023-02-22T16:33:33.682Z,7.95
2023-02-22T16:36:06.067Z,6.90
2023-02-22T16:38:34.004Z,7.18
2023-02-22T16:41:05.554Z,6.05
2023-02-22T16:46:04.768Z,6.28
2023-02-22T16:48:33.542Z,7.70
2023-02-22T16:51:14.939Z,6.82
2023-02-22T16:53:42.090Z,8.77
2023-02-22T16:56:16.215Z,7.10
2023-02-22T16:58:44.626Z,8.00
2023-02-22T17:01:12.800Z,10.88
2023-02-22T17:03:39.833Z,9.70
2023-02-22T17:06:14.785Z,11.90
2023-02-22T17:08:42.533Z,12.77
2023-02-22T17:11:15.027Z,8.00
2023-02-22T17:13:51.499Z,9.15
2023-02-22T17:16:21.639Z,8.02
2023-02-22T17:18:51.903Z,9.73
2023-02-22T17:21:18.893Z,8.80
2023-02-22T17:23:48.360Z,8.35
2023-02-22T17:26:19.217Z,7.28
2023-02-22T17:28:46.297Z,8.68
2023-02-22T17:31:24.294Z,8.77
2023-02-22T17:33:51.543Z,8.70
2023-02-22T17:36:18.828Z,9.93
2023-02-22T17:38:45.835Z,10.98
2023-02-22T17:41:12.730Z,8.63
2023-02-22T17:43:42.090Z,10.40
2023-02-22T17:46:11.654Z,7.70
2023-02-22T17:48:41.035Z,9.90
2023-02-22T17:51:10.941Z,8.35
2023-02-22T17:53:39.221Z,9.43
2023-02-22T17:56:16.725Z,10.05
2023-02-22T17:58:50.398Z,9.23
2023-02-22T18:01:22.083Z,8.90
2023-02-22T18:03:49.310Z,10.88
2023-02-22T18:06:24.015Z,8.38
2023-02-22T18:08:56.775Z,7.18
2023-02-22T18:11:26.450Z,9.30
2023-02-22T18:14:04.965Z,11.35
2023-02-22T18:16:34.023Z,8.77
2023-02-22T18:19:03.387Z,10.68
2023-02-22T18:21:32.964Z,7.22
2023-02-22T18:24:01.420Z,10.05
2023-02-22T18:26:28.718Z,8.82
2023-02-22T18:28:55.966Z,8.30
2023-02-22T18:31:27.056Z,12.52
2023-02-22T18:33:54.062Z,9.63
2023-02-22T18:36:24.089Z,11.18
2023-02-22T18:38:55.339Z,9.88
2023-02-22T18:41:25.290Z,8.57
2023-02-22T18:43:55.242Z,9.15
2023-02-22T18:46:24.518Z,9.57
2023-02-22T18:48:57.189Z,9.10
2023-02-22T18:51:25.912Z,9.70
2023-02-22T18:53:59.995Z,10.43
2023-02-22T18:56:30.117Z,12.98
2023-02-22T18:59:03.242Z,9.85
2023-02-22T19:01:38.659Z,16.00
2023-02-22T19:04:10.323Z,26.13
2023-02-22T19:06:39.161Z,25.08
2023-02-22T19:09:09.741Z,21.77
2023-02-22T19:11:37.422Z,20.55
2023-02-22T19:14:09.754Z,21.35
2023-02-22T19:16:37.133Z,17.85
2023-02-22T19:19:04.124Z,15.80
2023-02-22T19:21:33.653Z,16.40
2023-02-22T19:24:01.142Z,16.00
2023-02-22T19:26:29.381Z,13.90
2023-02-22T19:28:58.746Z,14.27
2023-02-22T19:31:33.581Z,17.13
2023-02-22T19:34:11.587Z,13.77
2023-02-22T19:36:46.746Z,16.05
2023-02-22T19:41:55.589Z,15.80
2023-02-22T19:44:23.901Z,17.23
2023-02-22T19:46:58.854Z,14.40
2023-02-22T19:49:29.103Z,14.65
2023-02-22T19:51:58.017Z,17.27
2023-02-22T19:54:24.917Z,16.23
2023-02-22T19:56:52.354Z,16.23
2023-02-22T19:59:23.015Z,17.15
2023-02-22T20:01:54.037Z,15.55
2023-02-22T20:04:22.292Z,14.23
2023-02-22T20:06:54.302Z,14.82
2023-02-22T20:09:29.782Z,14.55
2023-02-22T20:11:57.287Z,15.05
2023-02-22T20:14:28.374Z,14.18
2023-02-22T20:16:58.694Z,13.48
2023-02-22T20:19:27.236Z,13.48
2023-02-22T20:21:57.741Z,12.13
2023-02-22T20:24:27.813Z,11.20
2023-02-22T20:26:57.133Z,12.38
2023-02-22T20:29:29.689Z,18.08
2023-02-22T20:32:02.675Z,13.55
2023-02-22T20:34:33.662Z,13.77
2023-02-22T20:37:04.967Z,16.23
2023-02-22T20:39:34.682Z,14.82
2023-02-22T20:42:03.433Z,17.20
2023-02-22T20:44:30.668Z,17.65
2023-02-22T20:47:02.396Z,17.70
2023-02-22T20:49:29.527Z,16.40
2023-02-22T20:51:56.544Z,13.13
2023-02-22T20:54:26.470Z,17.77
2023-02-22T20:56:53.714Z,21.10
2023-02-22T20:59:23.256Z,21.63
2023-02-22T21:01:52.827Z,24.48
2023-02-22T21:04:22.133Z,21.75
2023-02-22T21:06:52.160Z,21.83
2023-02-22T21:09:23.495Z,19.88
2023-02-22T21:11:50.772Z,17.42
2023-02-22T21:14:20.791Z,14.57
2023-02-22T21:16:52.683Z,13.80
2023-02-22T21:19:26.472Z,14.40
2023-02-22T21:22:01.452Z,14.95
2023-02-22T21:24:31.937Z,14.93
2023-02-22T21:26:59.175Z,13.98
2023-02-22T21:29:28.101Z,14.02
2023-02-22T21:31:55.880Z,11.35
2023-02-22T21:34:25.866Z,14.10
2023-02-22T21:36:53.286Z,14.65
2023-02-22T21:39:20.904Z,11.85
2023-02-22T21:41:50.786Z,12.43
2023-02-22T21:44:23.898Z,12.60
2023-02-22T21:46:50.848Z,21.30
2023-02-22T21:49:22.305Z,21.67
2023-02-22T21:51:49.839Z,17.02
2023-02-22T21:54:19.868Z,12.77
2023-02-22T21:56:51.980Z,11.75
2023-02-22T21:59:23.770Z,12.00
2023-02-22T22:01:55.993Z,11.93
2023-02-22T22:04:30.017Z,10.50
2023-02-22T22:07:00.269Z,11.13
2023-02-22T22:09:33.430Z,11.73
2023-02-22T22:12:04.960Z,12.65
2023-02-22T22:14:35.135Z,11.23
2023-02-22T22:17:06.497Z,10.65
2023-02-22T22:19:44.397Z,11.13
2023-02-22T22:22:12.341Z,13.23
2023-02-22T22:24:41.717Z,10.70
2023-02-22T22:27:12.947Z,12.98
2023-02-22T22:29:39.988Z,13.35
2023-02-22T22:32:07.099Z,12.75
2023-02-22T22:34:37.899Z,10.95
2023-02-22T22:37:07.658Z,11.50
2023-02-22T22:39:34.587Z,10.35
2023-02-22T22:42:02.826Z,11.68
2023-02-22T22:44:32.792Z,12.07
2023-02-22T22:47:00.182Z,12.55
2023-02-22T22:49:29.329Z,11.57
2023-02-22T22:51:56.259Z,11.30
2023-02-22T22:54:23.866Z,10.48
2023-02-22T22:56:51.665Z,13.23
2023-02-22T22:59:21.659Z,12.35
2023-02-22T23:01:48.609Z,11.63
2023-02-22T23:04:16.850Z,11.00
2023-02-22T23:06:50.686Z,10.85
2023-02-22T23:09:29.615Z,9.45
2023-02-22T23:12:17.832Z,11.10
2023-02-22T23:14:45.839Z,12.45
2023-02-22T23:17:16.216Z,12.55
2023-02-22T23:19:45.060Z,12.68
2023-02-22T23:22:14.193Z,12.38
2023-02-22T23:24:41.706Z,11.73
2023-02-22T23:27:12.307Z,14.68
2023-02-22T23:29:45.486Z,11.50
2023-02-22T23:32:14.370Z,10.93
2023-02-22T23:34:41.809Z,12.88
2023-02-22T23:37:14.175Z,15.05
2023-02-22T23:39:44.215Z,16.65
2023-02-22T23:42:11.127Z,12.23
2023-02-22T23:44:41.302Z,13.35
2023-02-22T23:47:10.544Z,12.90
2023-02-22T23:49:38.730Z,14.52
2023-02-22T23:52:13.270Z,14.25
2023-02-22T23:54:46.509Z,15.32
2023-02-22T23:57:17.589Z,16.27
2023-02-22T23:59:45.517Z,13.80
